createdAt,value
2018-08-08T00:00:28.148Z,99.90
2018-08-08T00:02:56.600Z,99.90
2018-08-08T00:05:24.982Z,99.90
2018-08-08T00:07:53.363Z,99.90
2018-08-08T00:10:21.749Z,99.90
2018-08-08T00:12:50.148Z,99.90
2018-08-08T00:15:18.514Z,99.90
2018-08-08T00:17:47.293Z,99.90
2018-08-08T00:20:15.717Z,99.90
2018-08-08T00:22:44.089Z,99.90
2018-08-08T00:25:13.888Z,99.90
2018-08-08T00:27:42.740Z,99.90
2018-08-08T00:30:12.023Z,99.90
2018-08-08T00:32:40.714Z,99.90
2018-08-08T00:35:09.048Z,99.90
2018-08-08T00:37:37.788Z,99.90
2018-08-08T00:40:09.225Z,99.90
2018-08-08T00:42:37.857Z,99.90
2018-08-08T00:45:08.761Z,99.90
2018-08-08T00:47:37.378Z,99.90
2018-08-08T00:50:07.512Z,99.90
2018-08-08T00:52:36.229Z,99.90
2018-08-08T00:55:04.740Z,99.90
2018-08-08T00:57:33.107Z,99.90
2018-08-08T01:00:02.520Z,99.90
2018-08-08T01:02:31.005Z,99.90
2018-08-08T01:04:59.393Z,99.90
2018-08-08T01:07:29.347Z,99.90
2018-08-08T01:09:57.743Z,99.90
2018-08-08T01:12:26.117Z,99.90
2018-08-08T01:14:54.573Z,99.90
2018-08-08T01:17:22.966Z,99.90
2018-08-08T01:19:51.337Z,99.90
2018-08-08T01:22:19.712Z,99.90
2018-08-08T01:24:48.084Z,99.90
2018-08-08T01:27:16.456Z,99.90
2018-08-08T01:29:44.841Z,99.90
2018-08-08T01:32:13.244Z,99.90
2018-08-08T01:34:41.984Z,99.90
2018-08-08T01:37:10.297Z,99.90
2018-08-08T01:39:38.677Z,99.90
2018-08-08T01:42:07.310Z,99.90
2018-08-08T01:44:35.685Z,99.90
2018-08-08T01:47:04.054Z,99.90
2018-08-08T01:49:32.457Z,99.90
2018-08-08T01:52:00.849Z,99.90
2018-08-08T01:54:29.272Z,99.90
2018-08-08T01:56:57.664Z,99.90
2018-08-08T01:59:25.991Z,99.90
2018-08-08T02:01:54.329Z,99.90
2018-08-08T02:04:22.683Z,99.90
2018-08-08T02:06:51.044Z,99.90
2018-08-08T02:09:19.440Z,99.90
2018-08-08T02:11:47.872Z,99.90
2018-08-08T02:14:16.259Z,99.90
2018-08-08T02:16:44.577Z,99.90
2018-08-08T02:19:12.952Z,99.90
2018-08-08T02:21:41.351Z,99.90
2018-08-08T02:24:09.851Z,99.90
2018-08-08T02:26:38.305Z,99.90
2018-08-08T02:29:06.712Z,99.90
2018-08-08T02:31:35.061Z,99.90
2018-08-08T02:34:03.493Z,99.90
2018-08-08T02:36:31.868Z,99.90
2018-08-08T02:39:00.277Z,99.90
2018-08-08T02:41:28.620Z,99.90
2018-08-08T02:43:56.996Z,99.90
2018-08-08T02:46:25.365Z,99.90
2018-08-08T02:48:53.729Z,99.90
2018-08-08T02:51:22.101Z,99.90
2018-08-08T02:53:50.485Z,99.90
2018-08-08T02:56:18.865Z,99.90
2018-08-08T02:58:47.188Z,99.90
2018-08-08T03:01:15.580Z,99.90
2018-08-08T03:03:43.917Z,99.90
2018-08-08T03:06:12.268Z,99.90
2018-08-08T03:08:40.692Z,99.90
2018-08-08T03:11:09.056Z,99.90
2018-08-08T03:13:37.422Z,99.90
2018-08-08T03:16:05.816Z,99.90
2018-08-08T03:18:34.204Z,99.90
2018-08-08T03:21:02.515Z,99.90
2018-08-08T03:23:30.929Z,99.90
2018-08-08T03:25:59.303Z,99.90
2018-08-08T03:28:27.617Z,99.90
2018-08-08T03:30:55.976Z,99.90
2018-08-08T03:33:24.304Z,99.90
2018-08-08T03:35:52.696Z,99.90
2018-08-08T03:38:21.078Z,99.90
2018-08-08T03:40:49.428Z,99.90
2018-08-08T03:43:17.764Z,99.90
2018-08-08T03:45:46.131Z,99.90
2018-08-08T03:48:14.457Z,99.90
2018-08-08T03:50:42.954Z,99.90
2018-08-08T03:53:11.342Z,99.90
2018-08-08T03:55:39.723Z,99.90
2018-08-08T03:58:08.202Z,99.90
2018-08-08T04:00:36.598Z,99.90
2018-08-08T04:03:05.074Z,99.90
2018-08-08T04:05:33.495Z,99.90
2018-08-08T04:08:01.865Z,99.90
2018-08-08T04:10:30.237Z,99.90
2018-08-08T04:12:58.613Z,99.90
2018-08-08T04:15:26.964Z,99.90
2018-08-08T04:17:55.312Z,99.90
2018-08-08T04:20:23.681Z,99.90
2018-08-08T04:22:52.002Z,99.90
2018-08-08T04:25:20.352Z,99.90
2018-08-08T04:27:48.704Z,99.90
2018-08-08T04:30:19.093Z,99.90
2018-08-08T04:32:47.554Z,99.90
2018-08-08T04:35:15.957Z,99.90
2018-08-08T04:37:44.308Z,99.90
2018-08-08T04:40:15.448Z,99.90
2018-08-08T04:42:44.936Z,99.90
2018-08-08T04:45:13.964Z,99.90
2018-08-08T04:47:43.024Z,99.90
2018-08-08T04:50:11.545Z,99.90
2018-08-08T04:52:39.940Z,99.90
2018-08-08T04:55:09.891Z,99.90
2018-08-08T04:57:38.505Z,99.90
2018-08-08T05:00:08.318Z,99.90
2018-08-08T05:02:37.312Z,99.90
2018-08-08T05:05:06.056Z,99.90
2018-08-08T05:07:34.780Z,99.90
2018-08-08T05:10:03.487Z,99.90
2018-08-08T05:12:31.847Z,99.90
2018-08-08T05:15:00.172Z,99.90
2018-08-08T05:17:28.519Z,99.90
2018-08-08T05:19:56.920Z,99.90
2018-08-08T05:22:25.277Z,99.90
2018-08-08T05:24:53.598Z,99.90
2018-08-08T05:27:21.976Z,99.90
2018-08-08T05:29:50.320Z,99.90
2018-08-08T05:32:18.732Z,99.90
2018-08-08T05:34:47.077Z,99.90
2018-08-08T05:37:15.467Z,99.90
2018-08-08T05:39:43.801Z,99.90
2018-08-08T05:42:12.181Z,99.90
2018-08-08T05:44:40.521Z,99.90
2018-08-08T05:47:08.896Z,99.90
2018-08-08T05:49:37.249Z,99.90
2018-08-08T05:52:05.990Z,99.90
2018-08-08T05:54:34.392Z,99.90
2018-08-08T05:57:02.781Z,99.90
2018-08-08T05:59:31.177Z,99.90
2018-08-08T06:01:59.596Z,99.90
2018-08-08T06:04:27.934Z,99.90
2018-08-08T06:06:56.326Z,99.90
2018-08-08T06:09:24.653Z,99.90
2018-08-08T06:11:53.015Z,99.90
2018-08-08T06:14:21.384Z,99.90
2018-08-08T06:16:49.733Z,99.90
2018-08-08T06:19:18.053Z,99.90
2018-08-08T06:21:46.449Z,99.90
2018-08-08T06:24:14.817Z,99.90
2018-08-08T06:26:44.804Z,99.90
2018-08-08T06:29:13.168Z,99.90
2018-08-08T06:31:42.733Z,99.90
2018-08-08T06:34:11.381Z,99.90
2018-08-08T06:36:39.794Z,99.90
2018-08-08T06:39:11.846Z,99.90
2018-08-08T06:41:40.542Z,99.90
2018-08-08T06:44:09.063Z,99.90
2018-08-08T06:46:37.512Z,99.90
2018-08-08T06:49:05.981Z,99.90
2018-08-08T06:51:34.370Z,99.90
2018-08-08T06:54:02.866Z,99.90
2018-08-08T06:56:31.245Z,99.90
2018-08-08T06:58:59.621Z,99.90
2018-08-08T07:01:28.051Z,99.90
2018-08-08T07:03:56.396Z,99.90
2018-08-08T07:06:24.781Z,99.90
2018-08-08T07:08:53.132Z,99.90
2018-08-08T07:11:21.502Z,99.90
2018-08-08T07:13:49.863Z,99.90
2018-08-08T07:16:18.308Z,99.90
2018-08-08T07:18:46.904Z,99.90
2018-08-08T07:21:15.253Z,99.90
2018-08-08T07:23:43.592Z,99.90
2018-08-08T07:26:11.953Z,99.90
2018-08-08T07:28:40.289Z,99.90
2018-08-08T07:31:08.637Z,99.90
2018-08-08T07:33:37.029Z,99.90
2018-08-08T07:36:05.414Z,99.90
2018-08-08T07:38:33.773Z,99.90
2018-08-08T07:41:02.165Z,99.90
2018-08-08T07:43:30.498Z,99.90
2018-08-08T07:45:58.840Z,99.90
2018-08-08T07:48:27.210Z,99.90
2018-08-08T07:50:55.556Z,99.90
2018-08-08T07:53:23.917Z,99.90
2018-08-08T07:55:52.284Z,99.90
2018-08-08T07:58:20.614Z,99.90
2018-08-08T08:00:49.023Z,99.90
2018-08-08T08:03:17.773Z,99.90
2018-08-08T08:05:46.105Z,99.90
2018-08-08T08:08:14.457Z,99.90
2018-08-08T08:10:42.782Z,99.90
2018-08-08T08:13:11.132Z,99.90
2018-08-08T08:15:39.424Z,99.90
2018-08-08T08:18:07.784Z,99.90
2018-08-08T08:20:36.121Z,99.90
2018-08-08T08:23:04.491Z,99.90
2018-08-08T08:25:32.842Z,99.90
2018-08-08T08:28:01.192Z,99.90
2018-08-08T08:30:29.515Z,99.90
2018-08-08T08:32:57.864Z,99.90
2018-08-08T08:35:26.205Z,99.90
2018-08-08T08:37:54.569Z,99.90
2018-08-08T08:40:23.014Z,99.90
2018-08-08T08:42:51.589Z,99.90
2018-08-08T08:45:19.918Z,99.90
2018-08-08T08:47:48.233Z,99.90
2018-08-08T08:50:16.618Z,99.90
2018-08-08T08:52:44.976Z,99.90
2018-08-08T08:55:13.360Z,99.90
2018-08-08T08:57:41.706Z,99.90
2018-08-08T09:00:12.785Z,99.90
2018-08-08T09:02:41.581Z,99.90
2018-08-08T09:05:10.872Z,99.90
2018-08-08T09:07:39.224Z,99.90
2018-08-08T09:10:09.094Z,99.90
2018-08-08T09:12:37.640Z,99.90
2018-08-08T09:15:07.752Z,99.90
2018-08-08T09:17:36.116Z,99.90
2018-08-08T09:20:04.914Z,99.90
2018-08-08T09:22:34.542Z,99.90
2018-08-08T09:25:02.963Z,99.90
2018-08-08T09:27:31.285Z,99.90
2018-08-08T09:30:04.918Z,99.90
2018-08-08T09:32:33.274Z,99.90
2018-08-08T09:35:01.634Z,99.90
2018-08-08T09:37:29.986Z,99.90
2018-08-08T09:39:58.332Z,99.90
2018-08-08T09:42:26.669Z,99.90
2018-08-08T09:44:55.054Z,99.90
2018-08-08T09:47:23.505Z,99.90
2018-08-08T09:49:51.861Z,99.90
2018-08-08T09:52:20.186Z,99.90
2018-08-08T09:54:48.559Z,99.90
2018-08-08T09:57:16.904Z,99.90
2018-08-08T09:59:45.241Z,99.90
2018-08-08T10:02:18.938Z,99.90
2018-08-08T10:04:47.260Z,99.90
2018-08-08T10:07:15.600Z,99.90
2018-08-08T10:09:43.937Z,99.90
2018-08-08T10:14:46.954Z,99.90
2018-08-08T10:17:15.292Z,99.90
2018-08-08T10:19:43.609Z,99.90
2018-08-08T10:22:11.926Z,99.90
2018-08-08T10:24:40.255Z,99.90
2018-08-08T10:27:08.647Z,99.90
2018-08-08T10:29:37.049Z,99.90
2018-08-08T10:32:05.378Z,99.90
2018-08-08T10:34:33.699Z,99.90
2018-08-08T10:37:02.180Z,99.90
2018-08-08T10:39:30.512Z,99.90
2018-08-08T10:41:58.872Z,99.90
2018-08-08T10:44:27.222Z,99.90
2018-08-08T10:46:55.538Z,99.90
2018-08-08T10:49:23.852Z,99.90
2018-08-08T10:51:52.184Z,99.90
2018-08-08T10:54:20.533Z,99.90
2018-08-08T10:56:48.861Z,99.90
2018-08-08T10:59:17.180Z,99.90
2018-08-08T11:01:45.535Z,99.90
2018-08-08T11:04:13.897Z,99.90
2018-08-08T11:06:42.245Z,99.90
2018-08-08T11:09:10.677Z,99.90
2018-08-08T11:11:38.995Z,99.90
2018-08-08T11:14:07.378Z,99.90
2018-08-08T11:16:35.725Z,99.90
2018-08-08T11:19:04.075Z,99.90
2018-08-08T11:21:32.428Z,99.90
2018-08-08T11:24:01.025Z,99.90
2018-08-08T11:26:29.369Z,99.90
2018-08-08T11:28:57.736Z,99.90
2018-08-08T11:31:26.072Z,99.00
2018-08-08T11:33:54.395Z,99.30
2018-08-08T11:36:22.752Z,98.90
2018-08-08T11:38:51.111Z,97.40
2018-08-08T11:41:19.401Z,98.10
2018-08-08T11:43:47.739Z,98.20
2018-08-08T11:46:16.157Z,98.00
2018-08-08T11:48:44.493Z,96.00
2018-08-08T11:51:12.837Z,94.50
2018-08-08T11:53:41.204Z,93.30
2018-08-08T11:56:09.621Z,94.10
2018-08-08T11:58:38.001Z,92.00
2018-08-08T12:01:06.517Z,90.20
2018-08-08T12:03:34.899Z,90.60
2018-08-08T12:06:03.281Z,88.90
2018-08-08T12:08:31.616Z,86.80
2018-08-08T12:10:59.928Z,89.80
2018-08-08T12:13:28.269Z,86.70
2018-08-08T12:15:56.697Z,86.00
2018-08-08T12:18:25.028Z,84.60
2018-08-08T12:20:53.344Z,83.30
2018-08-08T12:23:21.668Z,84.00
2018-08-08T12:25:49.997Z,84.20
2018-08-08T12:28:18.355Z,83.20
2018-08-08T12:30:46.735Z,83.00
2018-08-08T12:33:15.189Z,81.30
2018-08-08T12:35:43.629Z,80.20
2018-08-08T12:38:11.921Z,81.40
2018-08-08T12:40:40.241Z,79.30
2018-08-08T12:43:08.585Z,77.90
2018-08-08T12:45:36.892Z,79.70
2018-08-08T12:48:05.292Z,81.20
2018-08-08T12:50:33.637Z,82.90
2018-08-08T12:53:02.029Z,78.10
2018-08-08T12:55:30.336Z,80.70
2018-08-08T12:57:58.674Z,77.30
2018-08-08T13:00:27.030Z,77.30
2018-08-08T13:02:55.375Z,75.90
2018-08-08T13:05:23.675Z,73.80
2018-08-08T13:07:52.005Z,74.30
2018-08-08T13:10:20.350Z,75.30
2018-08-08T13:12:48.696Z,75.80
2018-08-08T13:15:17.024Z,75.90
2018-08-08T13:17:45.382Z,75.50
2018-08-08T13:20:13.737Z,77.00
2018-08-08T13:22:42.217Z,79.50
2018-08-08T13:25:10.598Z,79.40
2018-08-08T13:27:38.989Z,78.80
2018-08-08T13:30:07.344Z,78.40
2018-08-08T13:32:35.695Z,76.00
2018-08-08T13:35:04.102Z,77.40
2018-08-08T13:37:32.428Z,79.20
2018-08-08T13:40:00.778Z,81.60
2018-08-08T13:42:29.118Z,84.50
2018-08-08T13:44:57.509Z,87.30
2018-08-08T13:47:25.852Z,85.60
2018-08-08T13:49:54.190Z,84.50
2018-08-08T13:52:22.818Z,82.50
2018-08-08T13:54:51.208Z,82.20
2018-08-08T13:57:19.505Z,81.90
2018-08-08T13:59:47.881Z,83.80
2018-08-08T14:02:16.185Z,84.00
2018-08-08T14:04:44.553Z,84.20
2018-08-08T14:07:12.912Z,84.50
2018-08-08T14:09:41.263Z,87.70
2018-08-08T14:12:09.633Z,87.30
2018-08-08T14:14:37.943Z,87.10
2018-08-08T14:17:06.565Z,90.00
2018-08-08T14:19:34.912Z,88.60
2018-08-08T14:22:03.219Z,85.90
2018-08-08T14:24:31.565Z,85.70
2018-08-08T14:26:59.911Z,86.10
2018-08-08T14:29:28.251Z,87.10
2018-08-08T14:31:56.615Z,87.70
2018-08-08T14:34:24.977Z,87.40
2018-08-08T14:36:53.314Z,88.00
2018-08-08T14:39:21.651Z,89.40
2018-08-08T14:41:49.972Z,87.20
2018-08-08T14:44:18.304Z,87.30
2018-08-08T14:46:46.637Z,88.90
2018-08-08T14:49:15.014Z,89.90
2018-08-08T14:51:43.329Z,90.70
2018-08-08T14:54:11.677Z,91.20
2018-08-08T14:56:40.029Z,91.90
2018-08-08T14:59:08.386Z,92.00
2018-08-08T15:01:36.693Z,91.70
2018-08-08T15:04:05.517Z,91.50
2018-08-08T15:06:33.861Z,92.40
2018-08-08T15:09:02.191Z,92.60
2018-08-08T15:11:30.554Z,93.00
2018-08-08T15:13:58.889Z,92.70
2018-08-08T15:16:27.249Z,93.00
2018-08-08T15:18:55.603Z,92.80
2018-08-08T15:21:23.965Z,93.10
2018-08-08T15:23:52.310Z,94.10
2018-08-08T15:26:20.666Z,93.70
2018-08-08T15:28:49.001Z,93.20
2018-08-08T15:31:17.461Z,93.40
2018-08-08T15:33:45.691Z,93.40
2018-08-08T15:36:14.049Z,93.30
2018-08-08T15:38:42.401Z,94.10
2018-08-08T15:41:10.782Z,93.50
2018-08-08T15:43:39.096Z,94.00
2018-08-08T15:46:07.496Z,94.00
2018-08-08T15:48:35.902Z,94.30
2018-08-08T15:51:04.259Z,94.70
2018-08-08T15:53:32.648Z,94.70
2018-08-08T15:56:01.029Z,94.60
2018-08-08T15:58:29.367Z,94.40
2018-08-08T16:00:57.713Z,94.40
2018-08-08T16:03:27.121Z,94.70
2018-08-08T16:05:55.457Z,94.10
2018-08-08T16:08:23.785Z,94.80
2018-08-08T16:10:52.116Z,94.90
2018-08-08T16:13:20.451Z,94.90
2018-08-08T16:15:48.800Z,95.10
2018-08-08T16:18:17.127Z,95.30
2018-08-08T16:20:45.560Z,95.80
2018-08-08T16:23:13.893Z,95.40
2018-08-08T16:25:42.237Z,95.50
2018-08-08T16:28:10.550Z,96.20
2018-08-08T16:30:38.916Z,96.10
2018-08-08T16:33:07.256Z,96.20
2018-08-08T16:35:35.611Z,96.80
2018-08-08T16:38:03.961Z,96.70
2018-08-08T16:40:32.305Z,96.50
2018-08-08T16:43:00.969Z,97.20
2018-08-08T16:45:29.885Z,97.50
2018-08-08T16:47:58.209Z,98.00
2018-08-08T16:50:26.565Z,97.90
2018-08-08T16:52:54.890Z,98.10
2018-08-08T16:55:23.221Z,97.70
2018-08-08T16:57:51.536Z,98.60
2018-08-08T17:00:19.893Z,98.20
2018-08-08T17:02:48.242Z,98.90
2018-08-08T17:05:16.576Z,98.90
2018-08-08T17:07:44.896Z,99.40
2018-08-08T17:10:13.216Z,99.20
2018-08-08T17:12:41.580Z,99.90
2018-08-08T17:15:10.344Z,99.90
2018-08-08T17:17:38.685Z,99.90
2018-08-08T17:20:07.966Z,99.90
2018-08-08T17:22:36.237Z,99.90
2018-08-08T17:25:05.153Z,99.90
2018-08-08T17:27:33.481Z,99.90
2018-08-08T17:30:02.456Z,99.90
2018-08-08T17:32:30.765Z,99.90
2018-08-08T17:34:59.079Z,99.90
2018-08-08T17:37:27.481Z,99.90
2018-08-08T17:39:55.820Z,99.90
2018-08-08T17:42:24.140Z,99.90
2018-08-08T17:44:52.521Z,99.90
2018-08-08T17:47:20.876Z,99.90
2018-08-08T17:49:49.284Z,99.90
2018-08-08T17:52:18.205Z,99.90
2018-08-08T17:54:46.514Z,99.90
2018-08-08T17:57:14.888Z,99.90
2018-08-08T17:59:43.229Z,99.90
2018-08-08T18:02:11.625Z,99.90
2018-08-08T18:04:39.932Z,99.90
2018-08-08T18:07:08.290Z,99.90
2018-08-08T18:09:36.621Z,99.90
2018-08-08T18:12:05.113Z,99.90
2018-08-08T18:14:33.429Z,99.90
2018-08-08T18:17:01.832Z,99.90
2018-08-08T18:19:30.141Z,99.90
2018-08-08T18:21:58.476Z,99.90
2018-08-08T18:24:26.799Z,99.90
2018-08-08T18:26:55.135Z,99.90
2018-08-08T18:29:23.460Z,99.90
2018-08-08T18:31:51.900Z,99.90
2018-08-08T18:34:20.181Z,99.90
2018-08-08T18:36:48.617Z,99.90
2018-08-08T18:39:16.957Z,99.90
2018-08-08T18:41:45.260Z,99.90
2018-08-08T18:44:13.597Z,99.90
2018-08-08T18:46:42.076Z,99.90
2018-08-08T18:49:10.642Z,99.90
2018-08-08T18:51:38.919Z,99.90
2018-08-08T18:54:07.540Z,99.90
2018-08-08T18:56:35.845Z,99.90
2018-08-08T18:59:04.288Z,99.90
2018-08-08T19:01:32.636Z,99.90
2018-08-08T19:04:01.013Z,99.90
2018-08-08T19:06:29.941Z,99.90
2018-08-08T19:08:58.268Z,99.90
2018-08-08T19:11:26.572Z,99.90
2018-08-08T19:13:55.041Z,99.90
2018-08-08T19:16:23.305Z,99.90
2018-08-08T19:18:51.689Z,99.90
2018-08-08T19:21:20.016Z,99.90
2018-08-08T19:23:48.365Z,99.90
2018-08-08T19:26:16.685Z,99.90
2018-08-08T19:28:45.045Z,99.90
2018-08-08T19:31:13.349Z,99.90
2018-08-08T19:33:41.689Z,99.90
2018-08-08T19:36:10.041Z,99.90
2018-08-08T19:38:38.405Z,99.90
2018-08-08T19:41:06.875Z,99.90
2018-08-08T19:43:35.198Z,99.90
2018-08-08T19:46:04.500Z,99.90
2018-08-08T19:48:32.969Z,99.90
2018-08-08T19:51:01.297Z,99.90
2018-08-08T19:53:30.124Z,99.90
2018-08-08T19:55:58.565Z,99.90
2018-08-08T19:58:26.921Z,99.90
2018-08-08T20:00:55.262Z,99.90
2018-08-08T20:03:23.948Z,99.90
2018-08-08T20:05:52.581Z,99.90
2018-08-08T20:08:25.535Z,99.90
2018-08-08T20:10:55.133Z,99.90
2018-08-08T20:13:23.465Z,99.90
2018-08-08T20:15:53.421Z,99.90
2018-08-08T20:18:22.025Z,99.90
2018-08-08T20:20:50.395Z,99.90
2018-08-08T20:23:19.328Z,99.90
2018-08-08T20:25:47.684Z,99.90
2018-08-08T20:28:16.642Z,99.90
2018-08-08T20:30:45.574Z,99.90
2018-08-08T20:33:13.879Z,99.90
2018-08-08T20:35:42.206Z,99.90
2018-08-08T20:38:10.623Z,99.90
2018-08-08T20:40:38.936Z,99.90
2018-08-08T20:43:07.300Z,99.90
2018-08-08T20:45:35.699Z,99.90
2018-08-08T20:48:04.029Z,99.90
2018-08-08T20:50:32.341Z,99.90
2018-08-08T20:53:00.689Z,99.90
2018-08-08T20:55:29.013Z,99.90
2018-08-08T20:57:57.325Z,99.90
2018-08-08T21:00:25.653Z,99.90
2018-08-08T21:02:53.995Z,99.90
2018-08-08T21:05:22.627Z,99.90
2018-08-08T21:07:51.093Z,99.90
2018-08-08T21:10:19.417Z,99.90
2018-08-08T21:12:47.834Z,99.90
2018-08-08T21:15:16.180Z,99.90
2018-08-08T21:17:44.567Z,99.90
2018-08-08T21:20:12.894Z,99.90
2018-08-08T21:22:41.218Z,99.90
2018-08-08T21:25:09.536Z,99.90
2018-08-08T21:27:37.855Z,99.90
2018-08-08T21:30:07.641Z,99.90
2018-08-08T21:32:35.980Z,99.90
2018-08-08T21:35:04.324Z,99.90
2018-08-08T21:37:32.641Z,99.90
2018-08-08T21:40:00.957Z,99.90
2018-08-08T21:42:29.273Z,99.90
2018-08-08T21:44:57.613Z,99.90
2018-08-08T21:47:25.928Z,99.90
2018-08-08T21:49:54.321Z,99.90
2018-08-08T21:52:22.650Z,99.90
2018-08-08T21:55:02.386Z,99.90
2018-08-08T21:57:42.105Z,99.90
2018-08-08T22:00:21.868Z,99.90
2018-08-08T22:03:01.590Z,99.90
2018-08-08T22:05:41.212Z,99.90
2018-08-08T22:08:20.801Z,99.90
2018-08-08T22:11:00.477Z,99.90
2018-08-08T22:13:40.089Z,99.90
2018-08-08T22:16:19.689Z,99.90
2018-08-08T22:18:59.339Z,99.90
2018-08-08T22:21:27.699Z,99.90
2018-08-08T22:23:56.012Z,99.90
2018-08-08T22:26:24.381Z,99.90
2018-08-08T22:28:52.701Z,99.90
2018-08-08T22:31:21.037Z,99.90
2018-08-08T22:33:49.349Z,99.90
2018-08-08T22:36:17.711Z,99.90
2018-08-08T22:38:46.033Z,99.90
2018-08-08T22:41:14.400Z,99.90
2018-08-08T22:43:42.732Z,99.90
2018-08-08T22:46:11.097Z,99.90
2018-08-08T22:48:39.411Z,99.90
2018-08-08T22:51:07.761Z,99.90
2018-08-08T22:53:36.081Z,99.90
2018-08-08T22:56:04.441Z,99.90
2018-08-08T22:58:32.837Z,99.90
2018-08-08T23:01:01.228Z,99.90
2018-08-08T23:03:29.562Z,99.90
2018-08-08T23:05:57.953Z,99.90
2018-08-08T23:08:26.337Z,99.90
2018-08-08T23:10:54.666Z,99.90
2018-08-08T23:13:22.976Z,99.90
2018-08-08T23:15:51.328Z,99.90
2018-08-08T23:18:19.645Z,99.90
2018-08-08T23:20:48.036Z,99.90
2018-08-08T23:23:16.361Z,99.90
2018-08-08T23:25:45.694Z,99.90
2018-08-08T23:28:14.033Z,99.90
2018-08-08T23:30:42.385Z,99.90
2018-08-08T23:33:10.786Z,99.90
2018-08-08T23:35:39.123Z,99.90
2018-08-08T23:38:07.508Z,99.90
2018-08-08T23:40:35.856Z,99.90
2018-08-08T23:43:04.236Z,99.90
2018-08-08T23:45:32.584Z,99.90
2018-08-08T23:48:00.947Z,99.90
2018-08-08T23:50:29.316Z,99.90
2018-08-08T23:52:57.674Z,99.90
2018-08-08T23:55:26.057Z,99.90
2018-08-08T23:57:54.416Z,99.90
